Time;durP1;ratioP1;P1;durP2;ratioP2;P2;SDS_P1;SDS_P2;PMS_P1;PMS_P2;Temp;Humidity;BMP_temperature;BMP_pressure;BME280_temperature;BME280_humidity;BME280_pressure;Samples;Min_cycle;Max_cycle;Signal;HPM_P1;HPM_P2
2023/07/10 00:01:03;;;;;;;3.47;2.85;;;;;;;24.97;45.94;99943.28;5091739;28;20142;-37
2023/07/10 00:03:29;;;;;;;4.40;3.40;;;;;;;24.95;45.91;99940.03;5091969;28;20051;-38
2023/07/10 00:05:56;;;;;;;4.82;3.30;;;;;;;25.02;45.74;99936.97;5091637;28;20129;-38
2023/07/10 00:08:21;;;;;;;4.57;3.08;;;;;;;25.00;45.90;99938.34;5091298;28;20020;-36
2023/07/10 00:10:47;;;;;;;5.53;3.40;;;;;;;24.92;46.03;99943.38;5091503;28;20032;-37
2023/07/10 00:13:13;;;;;;;5.22;3.28;;;;;;;24.96;45.79;99943.59;5091571;28;20051;-37
2023/07/10 00:15:39;;;;;;;4.30;2.97;;;;;;;25.03;45.50;99943.22;5091316;28;20062;-37
2023/07/10 00:18:14;;;;;;;3.97;3.17;;;;;;;24.88;45.69;99944.22;5091518;28;20140;-37
2023/07/10 00:20:39;;;;;;;4.25;3.47;;;;;;;24.88;45.84;99947.75;5091526;28;20054;-36
2023/07/10 00:23:05;;;;;;;4.38;2.97;;;;;;;24.90;45.67;99950.19;5090351;28;20024;-37
2023/07/10 00:25:30;;;;;;;4.93;3.53;;;;;;;25.03;45.46;99943.22;5091114;28;20446;-37
2023/07/10 00:27:56;;;;;;;3.70;3.08;;;;;;;25.00;45.09;99938.34;5091256;28;20028;-37
2023/07/10 00:30:23;;;;;;;4.28;2.90;;;;;;;24.98;45.08;99942.19;5091883;28;20032;-38
2023/07/10 00:32:53;;;;;;;7.18;3.03;;;;;;;24.87;45.29;99937.19;5091642;28;20093;-37
2023/07/10 00:35:26;;;;;;;4.95;3.00;;;;;;;24.87;45.29;99943.44;5091141;28;20137;-38
2023/07/10 00:38:01;;;;;;;4.22;3.05;;;;;;;24.97;45.05;99943.28;5091312;28;20024;-37
2023/07/10 00:40:34;;;;;;;3.22;2.83;;;;;;;24.78;45.18;99945.19;5105762;28;20039;-37
2023/07/10 00:43:14;;;;;;;3.65;2.80;;;;;;;25.03;44.55;99943.22;5107072;28;20035;-37
2023/07/10 00:45:40;;;;;;;4.03;3.17;;;;;;;25.14;44.14;99942.75;5090838;28;20395;-37
2023/07/10 00:48:19;;;;;;;3.67;3.00;;;;;;;25.09;44.15;99945.56;5091012;28;20027;-37
2023/07/10 00:50:48;;;;;;;7.05;2.88;;;;;;;25.17;43.78;99944.91;5090942;28;20455;-37
2023/07/10 00:53:31;;;;;;;3.70;2.92;;;;;;;25.18;43.78;99943.78;5090770;28;20028;-37
2023/07/10 00:56:00;;;;;;;4.18;3.20;;;;;;;24.98;44.17;99935.94;5090807;28;20380;-37
2023/07/10 00:58:37;;;;;;;6.95;3.25;;;;;;;25.08;44.15;99938.50;5090768;28;20042;-37
2023/07/10 01:01:13;;;;;;;3.70;3.13;;;;;;;25.14;43.77;99931.06;5090958;28;20110;-36
2023/07/10 01:03:40;;;;;;;4.47;3.03;;;;;;;25.12;43.36;99939.53;5090830;28;20059;-37
2023/07/10 01:06:14;;;;;;;3.83;2.72;;;;;;;25.21;43.44;99933.41;5090589;28;20035;-37
2023/07/10 01:08:42;;;;;;;5.07;2.88;;;;;;;25.13;43.13;99924.81;5090646;28;20043;-37
2023/07/10 01:11:08;;;;;;;3.65;2.83;;;;;;;25.21;43.18;99933.41;5090600;28;20028;-37
2023/07/10 01:13:37;;;;;;;4.45;2.80;;;;;;;25.18;43.09;99927.44;5090680;28;20055;-36
2023/07/10 01:16:03;;;;;;;4.35;2.90;;;;;;;25.21;42.99;99922.50;5090174;28;20068;-36
2023/07/10 01:18:29;;;;;;;3.83;2.90;;;;;;;25.25;42.93;99923.59;5090466;28;20032;-37
2023/07/10 01:21:18;;;;;;;4.05;3.05;;;;;;;25.38;42.80;99927.44;5090576;28;20020;-37
2023/07/10 01:23:43;;;;;;;3.55;2.83;;;;;;;25.31;42.95;99930.56;5090275;28;20107;-37
2023/07/10 01:26:09;;;;;;;3.83;2.80;;;;;;;25.23;42.98;99928.53;5090300;28;20059;-38
2023/07/10 01:28:35;;;;;;;4.32;2.97;;;;;;;25.21;42.92;99931.50;5090302;28;20081;-38
2023/07/10 01:31:05;;;;;;;3.45;2.92;;;;;;;25.13;43.17;99932.16;5090362;28;20483;-37
2023/07/10 01:33:38;;;;;;;4.47;2.88;;;;;;;25.12;43.26;99930.56;5090626;28;20471;-37
2023/07/10 01:36:06;;;;;;;4.13;2.80;;;;;;;24.97;43.53;99931.59;5093972;28;20085;-36
2023/07/10 01:38:37;;;;;;;4.63;2.80;;;;;;;24.89;43.70;99932.25;5094462;28;20028;-36
2023/07/10 01:41:15;;;;;;;5.35;2.80;;;;;;;24.82;43.93;99946.22;5114256;28;20383;-36
2023/07/10 01:43:41;;;;;;;3.72;3.00;;;;;;;24.74;44.00;99942.25;5106104;28;20020;-37
2023/07/10 01:46:18;;;;;;;5.30;3.10;;;;;;;24.79;43.87;99944.09;5094511;28;20016;-37
2023/07/10 01:48:45;;;;;;;5.55;3.10;;;;;;;24.58;44.33;99932.69;5094417;28;20701;-36
2023/07/10 01:51:11;;;;;;;3.97;2.72;;;;;;;24.71;44.31;99944.75;5094047;28;20028;-36
2023/07/10 01:53:36;;;;;;;3.80;2.85;;;;;;;24.53;44.70;99938.19;5093999;28;20039;-36
2023/07/10 01:56:02;;;;;;;5.10;2.90;;;;;;;24.63;44.38;99939.97;5094096;28;20032;-37
2023/07/10 01:58:27;;;;;;;3.95;2.83;;;;;;;24.69;44.40;99939.59;5094091;28;20028;-36
2023/07/10 02:00:53;;;;;;;3.97;2.70;;;;;;;24.57;44.53;99934.56;5093557;28;20464;-37
2023/07/10 02:03:18;;;;;;;3.30;2.70;;;;;;;24.48;44.71;99933.56;5092644;28;20441;-37
2023/07/10 02:05:44;;;;;;;3.42;2.60;;;;;;;24.46;44.92;99935.78;5092284;28;20183;-37
2023/07/10 02:08:09;;;;;;;3.67;2.78;;;;;;;24.50;44.67;99938.72;5097729;28;20024;-37
2023/07/10 02:10:34;;;;;;;3.58;2.80;;;;;;;24.51;44.47;99933.03;5090618;28;20024;-36
2023/07/10 02:13:00;;;;;;;3.78;2.90;;;;;;;24.51;44.95;99933.03;5095682;28;20028;-35
2023/07/10 02:15:25;;;;;;;3.90;2.95;;;;;;;24.50;44.67;99934.13;5097199;28;20044;-36
2023/07/10 02:17:51;;;;;;;4.80;2.67;;;;;;;24.45;44.72;99928.72;5092943;28;20436;-37
2023/07/10 02:20:17;;;;;;;3.60;2.88;;;;;;;24.45;44.73;99925.22;5093290;28;20035;-37
2023/07/10 02:22:42;;;;;;;3.65;2.72;;;;;;;24.47;44.71;99925.72;5093081;28;20051;-36
2023/07/10 02:25:08;;;;;;;3.20;2.83;;;;;;;24.35;44.97;99926.13;5092834;28;20367;-37
2023/07/10 02:27:34;;;;;;;4.13;2.83;;;;;;;24.39;44.61;99924.47;5092842;28;20097;-37
2023/07/10 02:29:59;;;;;;;4.50;2.80;;;;;;;24.93;43.49;99922.41;5093227;28;20038;-37
2023/07/10 02:32:24;;;;;;;3.05;2.72;;;;;;;25.27;42.70;99922.16;5093683;28;20625;-37
2023/07/10 02:34:50;;;;;;;3.50;3.08;;;;;;;25.53;42.27;99922.56;5093690;28;20026;-37
2023/07/10 02:37:15;;;;;;;4.85;3.10;;;;;;;25.42;42.33;99925.72;5093492;28;20028;-37
2023/07/10 02:39:41;;;;;;;5.35;3.08;;;;;;;25.41;42.33;99922.22;5101737;28;20103;-37
2023/07/10 02:42:06;;;;;;;4.57;3.13;;;;;;;25.19;43.29;99939.16;5113521;27;20043;-37
2023/07/10 02:44:31;;;;;;;4.95;3.10;;;;;;;25.06;43.53;99934.47;5114047;28;20046;-37
2023/07/10 02:46:57;;;;;;;4.07;2.80;;;;;;;25.15;43.37;99936.22;5112496;27;20051;-37
2023/07/10 02:49:22;;;;;;;4.32;3.00;;;;;;;24.70;44.26;99930.34;5113781;28;20399;-37
2023/07/10 02:51:48;;;;;;;4.30;3.28;;;;;;;24.66;44.44;99934.75;5113085;28;20047;-37
2023/07/10 02:54:13;;;;;;;5.30;2.95;;;;;;;24.56;44.39;99938.41;5113418;28;20099;-37
2023/07/10 02:56:39;;;;;;;4.68;3.00;;;;;;;24.54;44.40;99931.63;5113497;28;20063;-37
2023/07/10 02:59:05;;;;;;;4.15;2.70;;;;;;;24.57;44.09;99922.88;5113300;27;20103;-37
2023/07/10 03:01:30;;;;;;;5.68;4.10;;;;;;;24.65;44.20;99944.00;5113628;28;20495;-37
2023/07/10 03:03:56;;;;;;;5.78;3.80;;;;;;;24.66;44.21;99933.94;5113306;28;20024;-37
2023/07/10 03:06:23;;;;;;;5.03;3.50;;;;;;;24.65;44.20;99940.47;5113305;28;20034;-36
2023/07/10 03:08:49;;;;;;;4.53;3.13;;;;;;;24.69;44.03;99934.13;5113213;28;20483;-37
2023/07/10 03:11:16;;;;;;;6.70;3.35;;;;;;;24.59;44.16;99937.00;5113091;28;20062;-37
2023/07/10 03:13:41;;;;;;;3.53;3.03;;;;;;;24.45;44.41;99939.59;5112919;28;20024;-37
2023/07/10 03:16:10;;;;;;;4.35;2.92;;;;;;;24.09;45.32;99950.09;5112897;28;20058;-37
2023/07/10 03:18:36;;;;;;;5.93;3.53;;;;;;;23.88;45.77;99946.78;5094411;28;20040;-37
2023/07/10 03:21:03;;;;;;;8.73;4.50;;;;;;;23.69;46.19;99960.25;5091981;28;20489;-36
2023/07/10 03:23:28;;;;;;;9.75;6.15;;;;;;;23.66;46.49;99968.94;5092457;28;20024;-36
2023/07/10 03:25:54;;;;;;;10.45;6.65;;;;;;;24.12;45.50;99963.09;5092589;28;20035;-42
2023/07/10 03:28:19;;;;;;;4.63;3.55;;;;;;;23.78;46.07;99964.81;5092206;28;20098;-40
2023/07/10 03:30:46;;;;;;;5.47;3.00;;;;;;;24.09;45.53;99967.22;5091519;28;20024;-40
2023/07/10 03:33:13;;;;;;;3.35;2.72;;;;;;;23.88;46.11;99977.47;5091139;28;20034;-41
2023/07/10 03:35:38;;;;;;;6.18;2.80;;;;;;;23.84;46.26;99972.88;5091879;28;20027;-41
2023/07/10 03:38:03;;;;;;;6.65;3.40;;;;;;;23.84;45.92;99957.41;5096874;28;20008;-40
2023/07/10 03:40:29;;;;;;;5.55;4.00;;;;;;;23.71;46.23;99972.44;5091062;28;20024;-41
2023/07/10 03:42:54;;;;;;;5.00;3.63;;;;;;;23.97;45.63;99966.78;5091701;28;20012;-40
2023/07/10 03:45:20;;;;;;;4.97;3.40;;;;;;;23.82;46.02;99970.47;5090400;28;20407;-41
2023/07/10 03:47:45;;;;;;;7.05;3.17;;;;;;;24.28;44.82;99969.19;5090787;28;20511;-41
2023/07/10 03:50:10;;;;;;;5.45;3.28;;;;;;;24.53;44.48;99968.09;5095531;28;20013;-41
2023/07/10 03:52:36;;;;;;;4.40;2.78;;;;;;;24.95;43.14;99969.97;5090168;28;20034;-40
2023/07/10 03:55:02;;;;;;;11.68;7.53;;;;;;;25.21;42.45;99971.50;5089958;28;20022;-42
2023/07/10 03:57:27;;;;;;;5.88;3.03;;;;;;;25.30;42.46;99973.34;5090105;28;20464;-42
2023/07/10 03:59:53;;;;;;;4.40;2.97;;;;;;;25.26;42.38;99979.66;5090058;28;20034;-43
2023/07/10 04:02:18;;;;;;;4.75;3.03;;;;;;;25.40;42.25;99979.69;5090270;28;20028;-43
2023/07/10 04:04:43;;;;;;;3.90;3.15;;;;;;;26.00;41.12;99985.25;5090356;28;20460;-42
2023/07/10 04:07:10;;;;;;;3.42;2.92;;;;;;;26.30;40.37;99991.25;5090112;28;20089;-41
2023/07/10 04:09:35;;;;;;;4.20;3.17;;;;;;;26.62;39.62;99990.38;5090207;28;20031;-42
2023/07/10 04:12:01;;;;;;;3.58;2.80;;;;;;;26.76;39.83;99992.25;5090057;28;20024;-41
2023/07/10 04:14:27;;;;;;;4.32;3.00;;;;;;;27.15;39.26;99985.38;5090115;28;20383;-41
2023/07/10 04:16:52;;;;;;;6.18;3.25;;;;;;;27.32;38.74;99991.00;5089492;28;20036;-41
2023/07/10 04:19:19;;;;;;;3.92;3.00;;;;;;;27.24;38.75;99989.81;5089960;28;20031;-40
2023/07/10 04:21:45;;;;;;;3.72;3.10;;;;;;;27.58;38.30;99984.94;5089876;28;20028;-41
2023/07/10 04:24:10;;;;;;;4.53;3.00;;;;;;;27.69;38.19;99994.50;5089983;28;20023;-41
2023/07/10 04:26:35;;;;;;;3.80;3.00;;;;;;;27.90;37.46;99996.75;5089690;28;20527;-41
2023/07/10 04:29:04;;;;;;;4.10;2.88;;;;;;;28.03;37.22;99993.94;5089656;28;20019;-40
2023/07/10 04:31:29;;;;;;;5.00;3.23;;;;;;;28.43;36.36;100004.06;5089770;28;20108;-42
2023/07/10 04:33:56;;;;;;;5.72;2.72;;;;;;;28.63;36.02;100002.69;5089877;28;20495;-42
2023/07/10 04:36:22;;;;;;;5.78;2.80;;;;;;;28.89;35.44;100001.97;5089639;28;20085;-41
2023/07/10 04:38:49;;;;;;;4.88;3.10;;;;;;;29.15;35.30;100002.00;5089965;28;20020;-41
2023/07/10 04:41:18;;;;;;;4.22;3.33;;;;;;;29.36;34.95;100011.19;5090198;28;20116;-41
2023/07/10 04:43:43;;;;;;;;;;;;;;;29.54;34.85;100009.22;5090856;28;20024;-43
2023/07/10 04:46:13;;;;;;;3.60;2.60;;;;;;;29.56;34.85;100004.22;5090403;28;19914;-40
2023/07/10 04:48:39;;;;;;;5.55;3.15;;;;;;;29.70;34.19;99990.34;5091581;28;20101;-41
2023/07/10 04:51:07;;;;;;;4.50;2.88;;;;;;;29.93;33.88;100007.44;5090684;28;20028;-41
2023/07/10 04:53:34;;;;;;;3.83;3.10;;;;;;;29.85;34.05;100008.22;5090660;28;20051;-42
2023/07/10 04:56:01;;;;;;;3.63;2.97;;;;;;;30.02;34.01;100012.88;5090496;28;20451;-42
2023/07/10 04:58:28;;;;;;;4.15;3.05;;;;;;;30.46;32.54;100008.03;5090606;28;20024;-41
2023/07/10 05:00:59;;;;;;;5.18;2.85;;;;;;;30.67;32.38;100007.28;5090174;28;20032;-41
2023/07/10 05:03:25;;;;;;;4.47;2.83;;;;;;;30.59;32.55;100009.75;5089069;28;20143;-40
2023/07/10 05:05:59;;;;;;;3.90;2.80;;;;;;;30.21;32.60;100005.06;5088812;28;20024;-42
2023/07/10 05:08:27;;;;;;;3.55;2.70;;;;;;;29.82;33.23;100003.41;5089356;28;20023;-41
2023/07/10 05:10:56;;;;;;;6.15;2.90;;;;;;;29.99;32.76;99999.84;5088737;28;20027;-42
2023/07/10 05:13:24;;;;;;;4.07;3.20;;;;;;;30.28;32.13;100011.97;5089510;28;20415;-41
2023/07/10 05:15:50;;;;;;;3.30;3.00;;;;;;;30.74;31.87;100019.34;5089173;28;20051;-41
2023/07/10 05:18:16;;;;;;;4.13;2.90;;;;;;;31.26;30.87;100015.44;5090228;28;20411;-42
2023/07/10 05:20:47;;;;;;;4.38;2.90;;;;;;;31.25;30.81;100015.81;5090643;28;20024;-41
2023/07/10 05:23:13;;;;;;;3.90;2.95;;;;;;;31.10;30.50;100007.03;5090329;28;20516;-42
2023/07/10 05:25:38;;;;;;;3.78;2.72;;;;;;;31.02;30.67;100012.59;5090077;28;20501;-42
2023/07/10 05:28:04;;;;;;;5.07;2.90;;;;;;;31.28;30.29;100012.38;5089797;28;20024;-41
2023/07/10 05:30:30;;;;;;;4.70;2.97;;;;;;;31.81;29.80;100010.75;5090346;28;20447;-41
2023/07/10 05:32:55;;;;;;;4.53;2.97;;;;;;;31.89;29.35;100004.38;5090193;28;20044;-42
2023/07/10 05:35:21;;;;;;;5.07;2.90;;;;;;;32.47;28.54;100004.31;5090308;28;20030;-42
2023/07/10 05:37:48;;;;;;;4.85;3.10;;;;;;;31.60;29.61;100001.78;5093733;28;20020;-41
2023/07/10 05:40:14;;;;;;;6.25;3.60;;;;;;;31.55;29.72;100003.59;5109451;28;20046;-42
2023/07/10 05:42:39;;;;;;;4.78;3.00;;;;;;;32.31;29.07;100004.22;5109405;28;20027;-42
2023/07/10 05:45:06;;;;;;;4.30;3.10;;;;;;;32.86;28.47;100010.31;5109192;28;20088;-42
2023/07/10 05:47:32;;;;;;;5.43;2.80;;;;;;;33.07;28.58;100012.88;5109172;28;20083;-42
2023/07/10 05:49:57;;;;;;;2.70;2.50;;;;;;;33.48;27.88;100019.19;5109614;28;20028;-42
2023/07/10 05:52:23;;;;;;;4.55;3.10;;;;;;;33.47;27.87;100017.59;5108988;28;20027;-43
2023/07/10 05:54:48;;;;;;;3.58;2.70;;;;;;;33.06;28.08;100010.47;5109316;28;20028;-41
2023/07/10 05:57:13;;;;;;;3.22;2.83;;;;;;;32.50;28.87;100017.41;5109402;28;20556;-42
2023/07/10 05:59:40;;;;;;;5.03;2.80;;;;;;;32.64;28.87;100019.06;5109061;28;20409;-40
2023/07/10 06:02:08;;;;;;;3.38;2.90;;;;;;;33.31;28.44;100022.25;5109099;28;20110;-41
2023/07/10 06:04:33;;;;;;;5.18;3.10;;;;;;;33.89;27.28;100013.59;5109258;28;20096;-42
2023/07/10 06:06:58;;;;;;;3.72;2.88;;;;;;;33.98;27.46;100014.22;5108242;28;20467;-42
2023/07/10 06:09:24;;;;;;;5.40;2.88;;;;;;;34.62;27.19;100009.50;5088526;28;20054;-42
2023/07/10 06:11:49;;;;;;;4.32;2.90;;;;;;;34.45;27.02;100018.19;5088831;28;20035;-42
2023/07/10 06:14:15;;;;;;;3.35;2.80;;;;;;;33.80;27.21;100015.75;5086577;28;20035;-42
2023/07/10 06:16:40;;;;;;;5.75;3.08;;;;;;;33.34;27.72;100002.25;5089120;28;20415;-42
2023/07/10 06:19:05;;;;;;;3.28;2.80;;;;;;;33.38;28.13;100007.88;5089695;28;20042;-43
2023/07/10 06:21:31;;;;;;;3.92;2.90;;;;;;;33.75;27.32;99994.72;5089774;28;20038;-42
2023/07/10 06:23:56;;;;;;;4.60;2.53;;;;;;;34.40;26.38;99996.34;5090459;28;20063;-41
2023/07/10 06:26:22;;;;;;;4.18;2.97;;;;;;;34.61;25.92;99991.31;5088942;28;20020;-41
2023/07/10 06:28:47;;;;;;;4.97;2.67;;;;;;;34.66;25.99;100007.63;5092002;28;20050;-43
2023/07/10 06:31:12;;;;;;;5.35;2.63;;;;;;;34.61;25.95;100010.66;5081907;28;20476;-43
2023/07/10 06:33:38;;;;;;;7.30;2.83;;;;;;;34.83;26.05;100003.69;5098700;28;20443;-42
2023/07/10 06:36:05;;;;;;;3.75;2.92;;;;;;;34.88;25.90;100010.09;5099953;27;20563;-40
2023/07/10 06:38:31;;;;;;;5.45;2.70;;;;;;;35.08;25.38;100013.69;5087950;28;20027;-43
2023/07/10 06:40:57;;;;;;;6.03;3.10;;;;;;;34.53;25.54;100005.34;5093276;28;20510;-42
2023/07/10 06:43:23;;;;;;;4.47;2.75;;;;;;;34.96;25.43;100006.34;5086049;28;20028;-42
2023/07/10 06:45:49;;;;;;;3.05;2.75;;;;;;;35.22;25.03;100020.34;5092901;28;20048;-43
2023/07/10 06:48:15;;;;;;;4.85;3.05;;;;;;;34.36;26.48;100010.06;5092827;28;20465;-42
2023/07/10 06:50:40;;;;;;;5.22;2.70;;;;;;;34.62;26.25;100008.72;5092210;28;20032;-41
2023/07/10 06:53:06;;;;;;;5.13;2.92;;;;;;;34.97;25.23;100008.72;5092054;28;20103;-43
2023/07/10 06:55:32;;;;;;;6.65;3.50;;;;;;;35.82;24.75;100016.38;5092136;28;20115;-41
2023/07/10 06:57:57;;;;;;;4.32;3.10;;;;;;;36.19;24.42;100001.97;5089080;28;20012;-44
2023/07/10 07:00:23;;;;;;;5.55;2.90;;;;;;;36.79;23.56;99993.81;5091732;28;20035;-43
2023/07/10 07:02:49;;;;;;;5.97;3.00;;;;;;;36.66;23.87;99989.66;5092342;28;20423;-44
2023/07/10 07:05:14;;;;;;;9.45;3.03;;;;;;;35.65;24.65;99989.16;5094399;28;20028;-44
2023/07/10 07:07:40;;;;;;;4.68;2.78;;;;;;;35.09;25.32;99984.84;5106864;27;20103;-50
2023/07/10 07:10:13;;;;;;;3.80;2.75;;;;;;;34.46;26.28;99987.44;5112263;28;20483;-42
2023/07/10 07:12:40;;;;;;;4.63;2.70;;;;;;;35.23;25.57;99990.72;5097472;28;20024;-42
2023/07/10 07:15:07;;;;;;;3.53;2.53;;;;;;;35.60;25.09;99999.34;5091380;28;20157;-41
2023/07/10 07:17:32;;;;;;;4.65;2.65;;;;;;;35.78;24.85;100007.22;5091341;28;20032;-42
2023/07/10 07:19:57;;;;;;;3.25;2.85;;;;;;;35.24;25.27;100001.44;5091796;28;20031;-42
2023/07/10 07:22:23;;;;;;;3.28;2.70;;;;;;;35.72;25.43;100003.94;5091963;28;20024;-43
2023/07/10 07:24:48;;;;;;;3.22;2.85;;;;;;;35.31;25.34;100003.53;5091452;28;20039;-42
2023/07/10 07:27:14;;;;;;;3.00;2.70;;;;;;;35.04;25.23;99997.81;5090612;28;20456;-43
2023/07/10 07:29:39;;;;;;;3.42;2.80;;;;;;;34.85;26.05;99995.03;5091249;28;20099;-43
2023/07/10 07:32:05;;;;;;;5.05;2.92;;;;;;;35.94;24.84;99996.78;5090630;28;20115;-41
2023/07/10 07:34:30;;;;;;;3.22;2.83;;;;;;;36.64;24.33;99996.75;5090948;28;20081;-42
2023/07/10 07:36:56;;;;;;;3.17;2.75;;;;;;;36.77;23.84;99993.38;5090660;28;20032;-41
2023/07/10 07:39:22;;;;;;;2.92;2.60;;;;;;;36.58;23.88;99985.97;5091589;28;20027;-42
2023/07/10 07:41:47;;;;;;;2.80;2.42;;;;;;;36.30;24.36;99985.53;5094415;28;20023;-43
2023/07/10 07:44:13;;;;;;;2.63;2.40;;;;;;;36.35;24.57;99985.22;5090693;28;20024;-42
2023/07/10 07:46:39;;;;;;;4.40;2.80;;;;;;;35.96;24.73;99977.84;5090732;28;20032;-43
2023/07/10 07:49:05;;;;;;;4.65;2.80;;;;;;;36.28;24.30;99974.84;5088431;28;20027;-43
2023/07/10 07:51:30;;;;;;;3.85;2.60;;;;;;;37.35;23.69;99971.91;5086532;28;20417;-41
2023/07/10 07:54:05;;;;;;;3.63;2.65;;;;;;;37.65;23.36;99971.06;5088546;28;20432;-41
2023/07/10 07:56:31;;;;;;;3.10;2.70;;;;;;;37.31;23.67;99974.66;5087267;28;20028;-41
2023/07/10 07:58:56;;;;;;;3.03;2.67;;;;;;;37.15;23.55;99974.09;5103925;28;20027;-43
2023/07/10 08:01:22;;;;;;;3.53;2.90;;;;;;;36.43;24.18;99958.44;5110660;28;20069;-43
2023/07/10 08:03:47;;;;;;;5.35;2.75;;;;;;;36.97;23.61;99960.75;5100313;28;20427;-42
2023/07/10 08:06:13;;;;;;;4.03;2.83;;;;;;;37.10;23.62;99961.31;5090460;28;20125;-45
2023/07/10 08:08:38;;;;;;;2.97;2.67;;;;;;;36.48;24.01;99958.09;5090332;28;20012;-42
2023/07/10 08:11:06;;;;;;;3.20;2.72;;;;;;;36.38;24.33;99954.78;5090499;28;20023;-44
2023/07/10 08:13:32;;;;;;;4.38;2.85;;;;;;;36.72;24.34;99954.09;5090528;28;20376;-42
2023/07/10 08:15:58;;;;;;;4.32;2.60;;;;;;;36.47;23.87;99943.44;5090008;28;20051;-42
2023/07/10 08:18:24;;;;;;;3.13;2.50;;;;;;;36.11;24.46;99959.50;5090038;28;20032;-42
2023/07/10 08:20:49;;;;;;;4.57;2.75;;;;;;;37.00;23.62;99944.56;5090432;28;20406;-42
2023/07/10 08:23:15;;;;;;;4.68;2.80;;;;;;;37.00;23.40;99948.13;5090101;28;20020;-42
2023/07/10 08:25:40;;;;;;;3.17;2.88;;;;;;;37.05;23.54;99949.75;5089824;28;20016;-42
2023/07/10 08:28:05;;;;;;;3.97;2.83;;;;;;;36.25;24.28;99936.78;5088611;28;20028;-43
2023/07/10 08:30:31;;;;;;;4.45;3.40;;;;;;;36.23;24.86;99936.38;5089091;28;20024;-42
2023/07/10 08:32:56;;;;;;;5.78;3.88;;;;;;;36.86;23.39;99936.84;5088869;28;20032;-42
2023/07/10 08:35:22;;;;;;;5.88;4.13;;;;;;;36.87;23.37;99939.25;5100867;28;20036;-42
2023/07/10 08:37:49;;;;;;;5.20;3.55;;;;;;;37.01;22.92;99935.84;5087737;28;20020;-44
2023/07/10 08:40:26;;;;;;;5.90;3.70;;;;;;;37.47;22.54;99929.22;5088663;28;20032;-43
2023/07/10 08:42:52;;;;;;;5.68;3.60;;;;;;;37.81;22.60;99920.84;5092299;28;20118;-44
2023/07/10 08:45:31;;;;;;;7.13;4.82;;;;;;;37.01;23.29;99940.59;5091332;28;20107;-43
2023/07/10 08:48:06;;;;;;;4.38;3.95;;;;;;;36.97;22.67;99919.16;5096347;28;20024;-41
2023/07/10 08:50:33;;;;;;;4.32;3.50;;;;;;;37.15;22.52;99924.16;5096362;28;20019;-42
2023/07/10 08:53:16;;;;;;;6.10;5.13;;;;;;;37.42;22.28;99927.63;5091758;28;20451;-42
2023/07/10 08:55:53;;;;;;;5.30;2.90;;;;;;;37.91;21.68;99926.50;5089033;28;20020;-43
2023/07/10 08:58:27;;;;;;;3.45;2.50;;;;;;;37.88;21.16;99930.03;5096225;28;20015;-42
2023/07/10 09:00:57;;;;;;;3.78;2.30;;;;;;;37.79;21.03;99924.00;5100521;28;20019;-43
2023/07/10 09:03:47;;;;;;;2.22;2.03;;;;;;;38.65;19.72;99927.41;5098786;28;20019;-42
2023/07/10 09:07:03;;;;;;;2.67;2.38;;;;;;;38.32;20.67;99915.28;5089682;28;20071;-41
2023/07/10 09:09:28;;;;;;;3.75;2.80;;;;;;;37.78;21.40;99914.09;5072329;28;20081;-42
2023/07/10 09:11:57;;;;;;;4.45;2.83;;;;;;;37.22;22.22;99921.44;5092206;28;20117;-42
2023/07/10 09:14:34;;;;;;;4.10;2.58;;;;;;;37.50;21.68;99914.59;5099046;28;20024;-42
2023/07/10 09:17:01;;;;;;;4.22;2.75;;;;;;;37.19;22.28;99913.13;5089344;28;20040;-43
2023/07/10 09:19:29;;;;;;;4.37;2.60;;;;;;;36.88;22.58;99910.38;5068968;28;20031;-44
2023/07/10 09:21:55;;;;;;;3.78;2.90;;;;;;;37.49;21.47;99913.00;5069204;28;20468;-42
2023/07/10 09:24:23;;;;;;;3.45;2.40;;;;;;;36.97;22.27;99913.63;5086252;28;20031;-44
2023/07/10 09:26:48;;;;;;;;;;;;;;;37.10;21.37;99910.59;5088708;28;20417;-43
2023/07/10 09:29:24;;;;;;;2.72;2.40;;;;;;;37.20;21.34;99909.94;5088402;28;19919;-43
2023/07/10 09:32:13;;;;;;;3.00;2.50;;;;;;;37.44;20.96;99902.25;5089196;28;20090;-42
2023/07/10 09:34:48;;;;;;;3.15;1.98;;;;;;;37.75;20.73;99906.50;5089505;28;20486;-42
2023/07/10 09:37:25;;;;;;;2.40;2.20;;;;;;;37.79;21.13;99898.22;5087402;28;20123;-43
2023/07/10 09:39:51;;;;;;;3.88;2.50;;;;;;;37.93;20.86;99898.34;5086135;28;20027;-44
2023/07/10 09:42:26;;;;;;;3.35;2.70;;;;;;;37.33;22.19;99900.16;5089274;28;20375;-41
2023/07/10 09:44:54;;;;;;;3.10;2.80;;;;;;;37.39;21.62;99894.28;5088914;28;20099;-43
2023/07/10 09:47:21;;;;;;;3.88;2.70;;;;;;;37.41;22.05;99891.91;5089691;28;20459;-42
2023/07/10 09:49:53;;;;;;;2.50;2.30;;;;;;;37.44;21.28;99886.41;5089795;28;20024;-41
2023/07/10 09:52:27;;;;;;;2.55;2.20;;;;;;;37.23;21.57;99891.75;5090085;28;20039;-41
2023/07/10 09:55:02;;;;;;;2.47;2.20;;;;;;;37.42;21.18;99888.75;5090161;28;20027;-41
2023/07/10 09:57:28;;;;;;;2.90;2.45;;;;;;;37.83;19.91;99885.16;5093490;28;20059;-42
2023/07/10 09:59:55;;;;;;;2.97;2.65;;;;;;;37.40;20.18;99882.00;5093534;28;20048;-43
2023/07/10 10:02:40;;;;;;;4.43;3.88;;;;;;;37.27;21.12;99887.81;5093776;28;20023;-42
2023/07/10 10:05:11;;;;;;;2.80;2.05;;;;;;;36.95;21.44;99879.13;5093572;28;20107;-43
2023/07/10 10:07:41;;;;;;;3.05;2.65;;;;;;;37.07;21.18;99867.81;5093451;28;20028;-42
2023/07/10 10:10:27;;;;;;;2.88;2.22;;;;;;;37.17;20.73;99871.88;5095935;28;20042;-42
2023/07/10 10:13:10;;;;;;;2.65;2.22;;;;;;;37.46;20.74;99867.41;5102068;28;20015;-41
2023/07/10 10:16:17;;;;;;;2.70;2.00;;;;;;;37.73;20.02;99872.78;5095408;28;20056;-44
2023/07/10 10:18:55;;;;;;;3.88;2.10;;;;;;;37.79;19.91;99853.81;5030399;28;20167;-42
2023/07/10 10:21:21;;;;;;;3.30;2.13;;;;;;;37.66;20.09;99856.91;5030503;28;20417;-43
2023/07/10 10:23:57;;;;;;;2.45;2.10;;;;;;;37.19;19.94;99852.88;5066986;28;20042;-42
2023/07/10 10:26:37;;;;;;;2.72;2.05;;;;;;;37.82;20.41;99858.59;5093432;28;20047;-42
2023/07/10 10:29:17;;;;;;;2.47;2.08;;;;;;;37.84;19.41;99851.47;5092993;28;20027;-42
2023/07/10 10:32:10;;;;;;;3.50;2.20;;;;;;;37.31;19.51;99844.28;5092658;28;20024;-42
2023/07/10 10:50:24;;;;;;;4.15;2.20;;;;;;;39.00;18.77;99825.84;5148075;27;20748;-43
2023/07/10 10:53:05;;;;;;;2.45;2.10;;;;;;;38.39;19.03;99817.28;5147993;27;20027;-43
2023/07/10 11:11:47;;;;;;;2.95;2.20;;;;;;;38.09;20.63;99798.88;5127917;27;20378;-42
2023/07/10 11:14:13;;;;;;;3.70;2.13;;;;;;;38.34;20.95;99801.75;5127950;27;20146;-45
2023/07/10 11:16:39;;;;;;;4.47;2.50;;;;;;;38.94;19.98;99805.16;5128488;27;20102;-42
2023/07/10 11:19:05;;;;;;;3.60;2.45;;;;;;;38.82;20.74;99802.72;5127964;27;20102;-43
2023/07/10 11:21:32;;;;;;;2.50;2.30;;;;;;;39.33;19.79;99798.81;5127746;27;20030;-43
2023/07/10 11:24:12;;;;;;;2.55;2.20;;;;;;;38.47;20.49;99784.75;5127681;27;20039;-42
2023/07/10 11:26:37;;;;;;;4.40;2.35;;;;;;;38.92;20.54;99785.28;5128065;27;20123;-44
2023/07/10 11:29:31;;;;;;;3.50;2.33;;;;;;;39.78;19.90;99779.72;5128180;27;20483;-44
2023/07/10 11:32:00;;;;;;;2.40;2.20;;;;;;;38.92;19.22;99777.72;5125243;27;20471;-42
2023/07/10 11:34:25;;;;;;;2.20;2.00;;;;;;;38.58;19.77;99776.47;5127943;27;20102;-44
2023/07/10 11:36:51;;;;;;;3.95;2.40;;;;;;;38.14;19.55;99779.06;5128320;27;20114;-43
2023/07/10 11:39:29;;;;;;;3.10;2.20;;;;;;;38.50;19.88;99781.97;5127396;27;20051;-42
2023/07/10 11:41:55;;;;;;;2.30;2.10;;;;;;;39.14;19.80;99769.41;5126830;27;20054;-41
2023/07/10 11:44:31;;;;;;;2.30;2.10;;;;;;;39.72;19.14;99761.03;5126685;28;20062;-43
2023/07/10 11:46:56;;;;;;;3.13;2.13;;;;;;;38.51;20.05;99763.31;5125038;28;20023;-44
2023/07/10 11:49:23;;;;;;;3.08;2.78;;;;;;;38.68;19.74;99757.03;5126989;27;20098;-43
2023/07/10 11:52:15;;;;;;;3.80;3.00;;;;;;;39.11;19.43;99761.88;5127223;27;20036;-43
2023/07/10 11:54:47;;;;;;;2.78;2.25;;;;;;;39.34;18.69;99758.69;5127007;28;20543;-43
2023/07/10 11:57:20;;;;;;;2.63;2.30;;;;;;;39.18;19.43;99745.16;5126990;27;20520;-43
2023/07/10 11:59:48;;;;;;;2.92;2.22;;;;;;;39.21;19.24;99755.50;5123656;27;20034;-43
2023/07/10 12:02:45;;;;;;;2.65;2.42;;;;;;;39.35;19.16;99749.13;5124385;28;20041;-42
2023/07/10 12:05:13;;;;;;;3.50;2.50;;;;;;;39.33;20.06;99751.53;5107997;27;20483;-44
2023/07/10 12:07:51;;;;;;;3.47;2.33;;;;;;;38.12;20.24;99748.13;5106547;28;20089;-43
2023/07/10 12:10:17;;;;;;;;;;;;;;;38.26;20.63;99752.13;5115384;28;20705;-45